createdAt,value
2023-12-29T00:01:08.233Z,2.84
2023-12-29T00:03:36.799Z,2.86
2023-12-29T00:06:07.889Z,2.97
2023-12-29T00:08:37.630Z,3.18
2023-12-29T00:11:05.939Z,3.43
2023-12-29T00:13:33.935Z,3.09
2023-12-29T00:16:01.700Z,3.42
2023-12-29T00:18:32.407Z,3.18
2023-12-29T00:21:06.607Z,3.23
2023-12-29T00:23:35.701Z,2.94
2023-12-29T00:26:03.703Z,3.04
2023-12-29T00:28:31.395Z,3.49
2023-12-29T00:31:01.961Z,3.54
2023-12-29T00:33:33.179Z,3.20
2023-12-29T00:36:01.235Z,3.13
2023-12-29T00:38:29.655Z,3.53
2023-12-29T00:40:57.548Z,3.92
2023-12-29T00:43:25.339Z,3.95
2023-12-29T00:45:53.248Z,3.23
2023-12-29T00:48:21.126Z,3.13
2023-12-29T00:50:49.032Z,3.07
2023-12-29T00:53:16.814Z,3.19
2023-12-29T00:55:44.543Z,3.40
2023-12-29T00:58:12.395Z,3.32
2023-12-29T01:00:40.404Z,3.58
2023-12-29T01:03:08.198Z,3.86
2023-12-29T01:05:36.133Z,3.91
2023-12-29T01:08:03.958Z,3.77
2023-12-29T01:10:31.741Z,3.95
2023-12-29T01:12:59.508Z,3.56
2023-12-29T01:15:27.382Z,4.01
2023-12-29T01:17:55.366Z,3.87
2023-12-29T01:20:23.284Z,4.39
2023-12-29T01:22:51.633Z,4.17
2023-12-29T01:25:19.728Z,4.05
2023-12-29T01:27:47.990Z,3.26
2023-12-29T01:30:15.816Z,4.03
2023-12-29T01:32:43.736Z,3.78
2023-12-29T01:35:11.652Z,3.66
2023-12-29T01:37:39.580Z,3.73
2023-12-29T01:40:08.113Z,3.67
2023-12-29T01:42:36.090Z,3.79
2023-12-29T01:45:04.150Z,3.70
2023-12-29T01:47:33.109Z,3.68
2023-12-29T01:50:01.076Z,3.98
2023-12-29T01:52:29.233Z,3.97
2023-12-29T01:54:58.055Z,3.84
2023-12-29T01:57:25.936Z,3.91
2023-12-29T01:59:56.858Z,3.96
2023-12-29T02:02:25.607Z,3.52
2023-12-29T02:04:57.044Z,3.93
2023-12-29T02:07:31.816Z,3.81
2023-12-29T02:10:03.621Z,3.50
2023-12-29T02:12:31.481Z,3.65
2023-12-29T02:14:59.354Z,3.72
2023-12-29T02:17:39.235Z,3.89
2023-12-29T02:20:08.560Z,3.81
2023-12-29T02:22:36.502Z,3.64
2023-12-29T02:25:09.915Z,4.04
2023-12-29T02:27:40.565Z,4.27
2023-12-29T02:30:16.229Z,4.13
2023-12-29T02:32:47.124Z,3.78
2023-12-29T02:35:29.316Z,3.72
2023-12-29T02:37:57.822Z,3.96
2023-12-29T02:40:27.661Z,3.58
2023-12-29T02:42:55.627Z,3.94
2023-12-29T02:45:26.942Z,3.57
2023-12-29T02:47:55.622Z,3.83
2023-12-29T02:50:23.904Z,3.87
2023-12-29T02:52:53.018Z,3.78
2023-12-29T02:55:21.058Z,3.08
2023-12-29T02:57:50.257Z,3.80
2023-12-29T03:00:18.242Z,3.68
2023-12-29T03:02:46.115Z,3.45
2023-12-29T03:05:14.235Z,3.38
2023-12-29T03:07:42.389Z,3.32
2023-12-29T03:10:10.824Z,3.41
2023-12-29T03:12:39.571Z,3.41
2023-12-29T03:15:07.687Z,3.98
2023-12-29T03:17:35.430Z,4.53
2023-12-29T03:20:06.403Z,3.94
2023-12-29T03:22:34.936Z,4.06
2023-12-29T03:25:02.800Z,4.27
2023-12-29T03:27:30.533Z,4.28
2023-12-29T03:29:58.337Z,4.44
2023-12-29T03:32:26.231Z,4.34
2023-12-29T03:34:54.200Z,3.76
2023-12-29T03:37:22.023Z,4.12
2023-12-29T03:39:50.406Z,4.01
2023-12-29T03:42:18.234Z,4.22
2023-12-29T03:44:46.030Z,3.79
2023-12-29T03:47:13.893Z,4.26
2023-12-29T03:49:41.809Z,4.09
2023-12-29T03:52:09.660Z,4.90
2023-12-29T03:54:37.711Z,4.41
2023-12-29T03:57:05.725Z,3.35
2023-12-29T03:59:33.699Z,4.24
2023-12-29T04:02:01.450Z,3.42
2023-12-29T04:04:29.370Z,3.66
2023-12-29T04:06:57.310Z,4.05
2023-12-29T04:09:25.320Z,4.11
2023-12-29T04:11:55.919Z,4.03
2023-12-29T04:14:24.219Z,3.81
2023-12-29T04:16:52.216Z,3.73
2023-12-29T04:19:20.602Z,4.21
2023-12-29T04:21:49.320Z,4.09
2023-12-29T04:24:17.035Z,4.92
2023-12-29T04:26:44.913Z,4.29
2023-12-29T04:29:14.402Z,4.54
2023-12-29T04:31:42.813Z,4.06
2023-12-29T04:34:10.579Z,4.45
2023-12-29T04:36:38.347Z,3.80
2023-12-29T04:39:06.177Z,4.58
2023-12-29T04:41:33.885Z,4.56
2023-12-29T04:44:01.801Z,4.11
2023-12-29T04:46:29.768Z,4.40
2023-12-29T04:48:57.740Z,4.11
2023-12-29T04:51:25.620Z,4.62
2023-12-29T04:53:56.452Z,4.32
2023-12-29T04:56:24.405Z,4.40
2023-12-29T04:58:53.585Z,3.89
2023-12-29T05:01:21.494Z,4.00
2023-12-29T05:03:49.398Z,3.77
2023-12-29T05:06:17.253Z,4.20
2023-12-29T05:08:44.996Z,4.62
2023-12-29T05:11:13.459Z,4.55
2023-12-29T05:13:41.169Z,4.28
2023-12-29T05:16:09.040Z,3.62
2023-12-29T05:18:36.979Z,4.45
2023-12-29T05:21:05.070Z,4.42
2023-12-29T05:23:32.902Z,5.57
2023-12-29T05:26:00.707Z,4.20
2023-12-29T05:28:28.498Z,4.33
2023-12-29T05:30:56.964Z,3.99
2023-12-29T05:33:27.956Z,4.25
2023-12-29T05:35:55.739Z,4.19
2023-12-29T05:38:24.203Z,4.20
2023-12-29T05:40:55.458Z,4.46
2023-12-29T05:43:23.430Z,4.02
2023-12-29T05:45:51.346Z,3.57
2023-12-29T05:48:19.224Z,4.13
2023-12-29T05:50:47.156Z,3.83
2023-12-29T05:53:16.414Z,3.56
2023-12-29T05:55:46.198Z,4.06
2023-12-29T05:58:14.452Z,3.73
2023-12-29T06:00:42.578Z,3.47
2023-12-29T06:03:10.975Z,3.98
2023-12-29T06:05:38.839Z,3.37
2023-12-29T06:08:07.152Z,3.69
2023-12-29T06:10:36.859Z,3.85
2023-12-29T06:13:05.045Z,3.99
2023-12-29T06:15:33.066Z,3.82
2023-12-29T06:18:01.630Z,3.89
2023-12-29T06:20:29.704Z,4.29
2023-12-29T06:22:58.346Z,3.89
2023-12-29T06:25:26.299Z,4.27
2023-12-29T06:27:54.834Z,3.60
2023-12-29T06:30:22.947Z,4.26
2023-12-29T06:32:53.296Z,4.00
2023-12-29T06:35:21.339Z,3.73
2023-12-29T06:37:49.330Z,3.69
2023-12-29T06:40:18.619Z,3.89
2023-12-29T06:42:46.871Z,3.99
2023-12-29T06:45:14.832Z,3.97
2023-12-29T06:47:42.844Z,4.58
2023-12-29T06:50:14.412Z,3.97
2023-12-29T06:52:42.580Z,3.69
2023-12-29T06:55:10.803Z,3.72
2023-12-29T06:57:39.431Z,3.19
2023-12-29T07:00:08.030Z,3.62
2023-12-29T07:02:39.385Z,3.22
2023-12-29T07:05:07.665Z,3.83
2023-12-29T07:07:39.127Z,3.30
2023-12-29T07:10:07.725Z,3.13
2023-12-29T07:12:35.684Z,3.13
2023-12-29T07:15:03.742Z,3.58
2023-12-29T07:17:31.642Z,2.82
2023-12-29T07:19:59.507Z,3.03
2023-12-29T07:22:27.450Z,3.02
2023-12-29T07:24:55.535Z,3.92
2023-12-29T07:27:23.530Z,3.83
2023-12-29T07:29:51.430Z,3.66
2023-12-29T07:32:19.260Z,3.45
2023-12-29T07:34:47.314Z,3.70
2023-12-29T07:37:15.305Z,3.74
2023-12-29T07:39:43.497Z,3.72
2023-12-29T07:42:12.085Z,3.75
2023-12-29T07:44:40.756Z,3.52
2023-12-29T07:47:08.601Z,3.71
2023-12-29T07:49:36.798Z,4.00
2023-12-29T07:52:05.012Z,3.61
2023-12-29T07:54:32.786Z,3.53
2023-12-29T07:57:00.590Z,3.49
2023-12-29T07:59:28.380Z,3.56
2023-12-29T08:01:56.265Z,4.08
2023-12-29T08:04:24.919Z,3.96
2023-12-29T08:06:52.955Z,4.01
2023-12-29T08:09:21.308Z,4.18
2023-12-29T08:11:49.711Z,3.88
2023-12-29T08:14:17.798Z,3.57
2023-12-29T08:16:45.660Z,3.47
2023-12-29T08:19:13.529Z,3.95
2023-12-29T08:21:41.395Z,4.15
2023-12-29T08:24:09.323Z,4.08
2023-12-29T08:26:48.040Z,4.07
2023-12-29T08:29:16.876Z,4.08
2023-12-29T08:31:45.267Z,3.95
2023-12-29T08:34:14.004Z,3.78
2023-12-29T08:36:41.961Z,4.15
2023-12-29T08:39:10.597Z,4.06
2023-12-29T08:41:38.434Z,3.80
2023-12-29T08:44:06.183Z,4.14
2023-12-29T08:46:34.159Z,3.43
2023-12-29T08:49:02.361Z,3.59
2023-12-29T08:51:30.224Z,3.46
2023-12-29T08:53:58.071Z,3.06
2023-12-29T08:56:28.416Z,2.72
2023-12-29T08:58:57.247Z,2.98
2023-12-29T09:01:25.485Z,2.84
2023-12-29T09:03:53.537Z,2.68
2023-12-29T09:06:21.413Z,2.45
2023-12-29T09:08:49.398Z,2.68
2023-12-29T09:11:17.820Z,2.81
2023-12-29T09:13:45.655Z,2.64
2023-12-29T09:16:13.561Z,2.56
2023-12-29T09:18:41.546Z,2.30
2023-12-29T09:21:09.521Z,2.42
2023-12-29T09:23:39.641Z,2.34
2023-12-29T09:26:07.568Z,2.58
2023-12-29T09:28:36.061Z,2.15
2023-12-29T09:31:04.287Z,2.32
2023-12-29T09:33:32.524Z,2.25
2023-12-29T09:36:00.296Z,2.37
2023-12-29T09:38:28.124Z,2.33
2023-12-29T09:41:00.337Z,2.71
2023-12-29T09:43:29.174Z,2.58
2023-12-29T09:45:59.163Z,2.52
2023-12-29T09:48:28.934Z,2.50
2023-12-29T09:50:58.236Z,2.53
2023-12-29T09:53:28.070Z,2.12
2023-12-29T09:55:58.497Z,2.27
2023-12-29T09:58:26.687Z,2.69
2023-12-29T10:00:55.316Z,2.18
2023-12-29T10:03:23.161Z,2.08
2023-12-29T10:05:56.050Z,2.67
2023-12-29T10:08:24.932Z,2.24
2023-12-29T10:10:54.399Z,2.37
2023-12-29T10:13:24.504Z,2.58
2023-12-29T10:16:20.245Z,2.54
2023-12-29T10:19:20.541Z,2.45
2023-12-29T10:22:05.416Z,2.61
2023-12-29T10:24:34.799Z,2.12
2023-12-29T10:27:02.920Z,2.44
2023-12-29T10:29:30.919Z,2.25
2023-12-29T10:31:58.848Z,2.40
2023-12-29T10:34:31.050Z,2.39
2023-12-29T10:37:00.143Z,2.53
2023-12-29T10:39:29.346Z,2.19
2023-12-29T10:42:09.131Z,2.25
2023-12-29T10:44:38.856Z,2.23
2023-12-29T10:47:13.240Z,2.49
2023-12-29T10:49:42.585Z,2.28
2023-12-29T10:52:18.218Z,2.45
2023-12-29T10:54:46.697Z,2.34
2023-12-29T10:57:14.929Z,2.00
2023-12-29T10:59:43.344Z,2.12
2023-12-29T11:02:16.475Z,2.14
2023-12-29T11:04:44.593Z,2.16
2023-12-29T11:07:14.867Z,2.12
2023-12-29T11:09:42.914Z,2.42
2023-12-29T11:12:14.870Z,2.73
2023-12-29T11:14:47.558Z,2.45
2023-12-29T11:17:18.300Z,2.05
2023-12-29T11:19:49.705Z,2.01
2023-12-29T11:22:21.278Z,2.11
2023-12-29T11:24:50.312Z,2.37
2023-12-29T11:27:19.284Z,2.15
2023-12-29T11:29:48.323Z,1.83
2023-12-29T11:32:27.962Z,1.93
2023-12-29T11:35:14.162Z,1.92
2023-12-29T11:38:04.776Z,1.85
2023-12-29T11:40:54.349Z,1.66
2023-12-29T11:43:22.692Z,1.81
2023-12-29T11:45:52.195Z,1.71
2023-12-29T11:49:15.476Z,1.40
2023-12-29T11:51:52.986Z,1.58
2023-12-29T11:54:25.936Z,1.69
2023-12-29T11:56:55.644Z,1.61
2023-12-29T11:59:28.923Z,1.58
2023-12-29T12:02:05.465Z,1.80
2023-12-29T12:04:43.800Z,1.58
2023-12-29T12:07:24.948Z,1.65
2023-12-29T12:09:56.248Z,1.60
2023-12-29T12:12:44.157Z,1.56
2023-12-29T12:15:33.603Z,1.91
2023-12-29T12:18:12.150Z,1.59
2023-12-29T12:20:41.010Z,1.67
2023-12-29T12:23:23.001Z,1.60
2023-12-29T12:25:58.765Z,1.56
2023-12-29T12:28:26.812Z,1.63
2023-12-29T12:31:10.144Z,1.25
2023-12-29T12:33:38.299Z,1.34
2023-12-29T12:36:07.883Z,1.09
2023-12-29T12:38:35.911Z,1.13
2023-12-29T12:41:15.549Z,1.29
2023-12-29T12:43:55.496Z,1.42
2023-12-29T12:46:27.923Z,1.38
2023-12-29T12:48:56.805Z,1.58
2023-12-29T12:51:25.288Z,1.82
2023-12-29T12:53:54.640Z,1.45
2023-12-29T12:56:22.862Z,1.45
2023-12-29T12:58:50.844Z,1.69
2023-12-29T13:01:19.706Z,1.70
2023-12-29T13:03:48.491Z,1.73
2023-12-29T13:06:18.101Z,2.01
2023-12-29T13:08:46.957Z,1.83
2023-12-29T13:11:14.962Z,1.71
2023-12-29T13:13:44.913Z,1.66
2023-12-29T13:16:15.101Z,1.59
2023-12-29T13:18:43.332Z,1.54
2023-12-29T13:21:11.416Z,1.68
2023-12-29T13:23:39.502Z,1.98
2023-12-29T13:26:10.868Z,1.73
2023-12-29T13:28:40.726Z,1.92
2023-12-29T13:31:13.738Z,1.93
2023-12-29T13:33:59.092Z,1.81
2023-12-29T13:36:35.299Z,2.05
2023-12-29T13:39:24.724Z,1.77
2023-12-29T13:41:54.246Z,1.64
2023-12-29T13:44:24.384Z,1.46
2023-12-29T13:46:54.833Z,1.18
2023-12-29T13:49:23.176Z,1.46
2023-12-29T13:51:51.396Z,1.68
2023-12-29T13:54:19.263Z,1.54
2023-12-29T13:56:54.697Z,1.33
2023-12-29T13:59:35.396Z,1.45
2023-12-29T14:02:32.490Z,1.63
2023-12-29T14:05:29.246Z,1.43
2023-12-29T14:08:09.463Z,1.34
2023-12-29T14:10:38.650Z,1.12
2023-12-29T14:13:10.336Z,1.19
2023-12-29T14:15:39.253Z,1.22
2023-12-29T14:18:25.576Z,1.28
2023-12-29T14:20:54.625Z,1.27
2023-12-29T14:23:25.399Z,1.29
2023-12-29T14:25:53.452Z,1.22
2023-12-29T14:28:26.151Z,1.36
2023-12-29T14:31:03.750Z,1.30
2023-12-29T14:33:31.714Z,0.98
2023-12-29T14:35:59.735Z,1.13
2023-12-29T14:38:27.932Z,1.08
2023-12-29T14:40:55.677Z,1.02
2023-12-29T14:43:23.806Z,0.98
2023-12-29T14:45:52.126Z,1.00
2023-12-29T14:48:22.227Z,0.99
2023-12-29T14:50:50.484Z,0.96
2023-12-29T14:53:18.265Z,0.81
2023-12-29T14:55:46.624Z,0.83
2023-12-29T14:58:14.581Z,1.03
2023-12-29T15:00:47.910Z,0.76
2023-12-29T15:03:16.528Z,1.16
2023-12-29T15:05:45.561Z,1.13
2023-12-29T15:08:13.830Z,1.51
2023-12-29T15:10:41.839Z,1.33
2023-12-29T15:13:09.635Z,1.31
2023-12-29T15:15:37.586Z,1.32
2023-12-29T15:18:06.180Z,1.23
2023-12-29T15:20:34.070Z,1.57
2023-12-29T15:23:03.683Z,1.28
2023-12-29T15:25:31.541Z,1.29
2023-12-29T15:27:59.715Z,1.34
2023-12-29T15:30:27.710Z,1.24
2023-12-29T15:32:55.552Z,1.55
2023-12-29T15:35:25.891Z,1.46
2023-12-29T15:37:55.236Z,1.53
2023-12-29T15:40:23.236Z,1.38
2023-12-29T15:42:50.995Z,1.47
2023-12-29T15:45:20.605Z,1.51
2023-12-29T15:47:48.397Z,1.50
2023-12-29T15:50:16.401Z,1.56
2023-12-29T15:52:44.250Z,1.57
2023-12-29T15:55:12.301Z,1.50
2023-12-29T15:57:42.697Z,1.74
2023-12-29T16:00:11.989Z,1.67
2023-12-29T16:02:39.890Z,1.81
2023-12-29T16:05:08.128Z,2.17
2023-12-29T16:07:36.165Z,1.62
2023-12-29T16:10:05.011Z,1.77
2023-12-29T16:12:32.919Z,1.85
2023-12-29T16:15:00.719Z,1.92
2023-12-29T16:17:28.484Z,1.85
2023-12-29T16:19:56.241Z,1.93
2023-12-29T16:22:24.456Z,2.11
2023-12-29T16:24:53.200Z,1.88
2023-12-29T16:27:21.004Z,2.05
2023-12-29T16:29:48.721Z,1.78
2023-12-29T16:32:24.901Z,1.84
2023-12-29T16:34:54.947Z,1.83
2023-12-29T16:37:23.274Z,1.98
2023-12-29T16:39:54.639Z,1.75
2023-12-29T16:42:26.627Z,1.71
2023-12-29T16:44:54.402Z,1.87
2023-12-29T16:47:22.297Z,1.75
2023-12-29T16:49:50.546Z,1.85
2023-12-29T16:52:18.754Z,1.82
2023-12-29T16:54:49.412Z,1.68
2023-12-29T16:57:17.191Z,1.72
2023-12-29T16:59:45.005Z,1.80
2023-12-29T17:02:13.043Z,1.93
2023-12-29T17:04:43.107Z,1.92
2023-12-29T17:07:11.253Z,1.87
2023-12-29T17:09:44.186Z,1.70
2023-12-29T17:12:12.118Z,2.09
2023-12-29T17:14:40.152Z,1.90
2023-12-29T17:17:08.565Z,1.98
2023-12-29T17:19:36.904Z,1.98
2023-12-29T17:22:05.032Z,2.16
2023-12-29T17:24:34.929Z,1.84
2023-12-29T17:27:03.806Z,2.16
2023-12-29T17:29:31.957Z,2.51
2023-12-29T17:31:59.631Z,2.02
2023-12-29T17:34:28.744Z,1.97
2023-12-29T17:36:57.532Z,2.13
2023-12-29T17:39:25.494Z,2.06
2023-12-29T17:41:53.959Z,2.29
2023-12-29T17:44:21.680Z,2.17
2023-12-29T17:46:51.121Z,2.47
2023-12-29T17:49:19.460Z,2.45
2023-12-29T17:51:47.570Z,2.57
2023-12-29T17:54:15.587Z,2.39
2023-12-29T17:56:43.419Z,2.37
2023-12-29T17:59:11.407Z,2.58
2023-12-29T18:01:40.146Z,2.84
2023-12-29T18:04:07.875Z,3.10
2023-12-29T18:06:35.653Z,3.03
2023-12-29T18:09:03.772Z,2.68
2023-12-29T18:11:31.874Z,2.92
2023-12-29T18:14:00.966Z,3.09
2023-12-29T18:16:29.887Z,3.08
2023-12-29T18:18:57.879Z,2.71
2023-12-29T18:21:25.682Z,2.65
2023-12-29T18:23:56.142Z,2.37
2023-12-29T18:26:24.035Z,2.45
2023-12-29T18:28:51.745Z,2.75
2023-12-29T18:31:20.909Z,2.47
2023-12-29T18:33:49.118Z,2.38
2023-12-29T18:36:17.840Z,2.34
2023-12-29T18:38:45.472Z,2.57
2023-12-29T18:41:13.300Z,2.27
2023-12-29T18:43:41.015Z,2.89
2023-12-29T18:46:10.708Z,2.46
2023-12-29T18:48:40.343Z,2.70
2023-12-29T18:51:08.212Z,2.72
2023-12-29T18:53:36.425Z,2.69
2023-12-29T18:56:08.283Z,2.29
2023-12-29T18:58:36.493Z,2.28
2023-12-29T19:01:07.183Z,2.52
2023-12-29T19:03:36.054Z,2.44
2023-12-29T19:06:06.499Z,2.67
2023-12-29T19:08:35.470Z,2.66
2023-12-29T19:11:03.726Z,2.69
2023-12-29T19:13:31.774Z,2.88
2023-12-29T19:16:01.414Z,2.54
2023-12-29T19:18:29.417Z,2.90
2023-12-29T19:20:57.316Z,2.59
2023-12-29T19:23:27.287Z,2.33
2023-12-29T19:25:55.996Z,2.15
2023-12-29T19:28:24.524Z,2.30
2023-12-29T19:30:57.087Z,2.15
2023-12-29T19:33:25.288Z,2.30
2023-12-29T19:35:53.235Z,2.59
2023-12-29T19:38:21.120Z,2.65
2023-12-29T19:40:49.107Z,3.03
2023-12-29T19:43:16.923Z,2.75
2023-12-29T19:45:44.661Z,2.73
2023-12-29T19:48:13.239Z,2.75
2023-12-29T19:50:41.876Z,2.97
2023-12-29T19:53:09.949Z,2.60
2023-12-29T19:55:39.265Z,2.67
2023-12-29T19:58:08.929Z,2.78
2023-12-29T20:00:37.135Z,2.45
2023-12-29T20:03:05.596Z,2.31
2023-12-29T20:05:33.665Z,2.28
2023-12-29T20:08:04.949Z,2.10
2023-12-29T20:10:32.901Z,2.02
2023-12-29T20:13:00.947Z,2.27
2023-12-29T20:15:30.673Z,2.33
2023-12-29T20:17:58.708Z,2.41
2023-12-29T20:20:28.791Z,2.63
2023-12-29T20:22:56.718Z,2.56
2023-12-29T20:25:24.642Z,2.66
2023-12-29T20:27:53.047Z,3.48
2023-12-29T20:30:21.133Z,3.51
2023-12-29T20:32:49.116Z,3.63
2023-12-29T20:35:16.919Z,3.99
2023-12-29T20:37:44.810Z,4.14
2023-12-29T20:40:13.163Z,4.01
2023-12-29T20:42:42.502Z,4.51
2023-12-29T20:45:10.520Z,3.94
2023-12-29T20:47:38.473Z,3.76
2023-12-29T20:50:07.577Z,4.01
2023-12-29T20:52:35.529Z,3.67
2023-12-29T20:55:04.870Z,3.51
2023-12-29T20:57:33.361Z,3.18
2023-12-29T21:00:01.793Z,3.87
2023-12-29T21:02:29.633Z,3.91
2023-12-29T21:04:57.570Z,3.79
2023-12-29T21:07:26.702Z,3.69
2023-12-29T21:09:57.299Z,3.58
2023-12-29T21:12:25.295Z,3.40
2023-12-29T21:14:53.260Z,3.86
2023-12-29T21:17:21.100Z,3.66
2023-12-29T21:19:53.754Z,3.47
2023-12-29T21:22:21.798Z,3.88
2023-12-29T21:24:49.596Z,4.25
2023-12-29T21:27:17.395Z,3.16
2023-12-29T21:29:47.243Z,2.48
2023-12-29T21:32:16.386Z,1.67
2023-12-29T21:34:44.125Z,1.30
2023-12-29T21:37:12.071Z,1.49
2023-12-29T21:39:41.389Z,1.77
2023-12-29T21:42:09.137Z,1.30
2023-12-29T21:44:36.962Z,1.34
2023-12-29T21:47:04.929Z,1.29
2023-12-29T21:49:33.450Z,1.67
2023-12-29T21:52:01.616Z,1.77
2023-12-29T21:54:29.315Z,1.59
2023-12-29T21:57:00.238Z,2.42
2023-12-29T21:59:28.959Z,2.32
2023-12-29T22:01:57.662Z,2.40
2023-12-29T22:04:26.074Z,2.42
2023-12-29T22:06:54.184Z,2.66
2023-12-29T22:09:22.035Z,2.55
2023-12-29T22:11:50.594Z,2.61
2023-12-29T22:14:18.710Z,2.61
2023-12-29T22:16:46.623Z,2.55
2023-12-29T22:19:14.453Z,2.72
2023-12-29T22:21:42.233Z,2.85
2023-12-29T22:24:10.179Z,2.70
2023-12-29T22:26:38.629Z,3.83
2023-12-29T22:29:06.373Z,3.80
2023-12-29T22:31:34.679Z,3.84
2023-12-29T22:34:02.763Z,4.04
2023-12-29T22:36:30.798Z,3.91
2023-12-29T22:38:58.768Z,4.73
2023-12-29T22:41:26.612Z,4.32
2023-12-29T22:43:54.292Z,4.18
2023-12-29T22:46:25.127Z,4.36
2023-12-29T22:48:55.496Z,4.82
2023-12-29T22:51:26.485Z,4.87
2023-12-29T22:53:54.304Z,4.48
2023-12-29T22:56:22.954Z,4.34
2023-12-29T22:58:51.280Z,4.50
2023-12-29T23:01:19.242Z,4.79
2023-12-29T23:03:48.181Z,4.89
2023-12-29T23:06:16.527Z,4.46
2023-12-29T23:08:44.355Z,4.65
2023-12-29T23:11:12.443Z,5.08
2023-12-29T23:13:41.002Z,5.43
2023-12-29T23:16:10.155Z,5.54
2023-12-29T23:18:38.598Z,5.44
2023-12-29T23:21:06.797Z,5.82
2023-12-29T23:23:34.469Z,6.04
2023-12-29T23:26:03.577Z,6.40
2023-12-29T23:28:32.122Z,6.61
2023-12-29T23:31:00.220Z,6.97
2023-12-29T23:33:28.191Z,7.15
2023-12-29T23:35:56.224Z,6.80
2023-12-29T23:38:24.611Z,7.52
2023-12-29T23:40:52.828Z,6.99
2023-12-29T23:43:20.662Z,8.01
2023-12-29T23:45:48.515Z,7.89
2023-12-29T23:48:16.549Z,8.19
2023-12-29T23:50:44.504Z,8.22
2023-12-29T23:53:12.501Z,9.10
2023-12-29T23:55:40.145Z,7.99
2023-12-29T23:58:08.103Z,8.60
